Valle Hermoso, Puerto Rico
Current Conditions -  °F | °C
As of 1:50 PM on Sunday 23 Nov 2014 (Local Time) from TJBQ Reporting Station
Scattered Clouds Scattered Clouds  
Wind Chill: 29°   Ceiling: Unl
Heat Index: 33°   Visibility: 10mi
Dew Point: 23°   Wind: 22mph
Humidity: 70%   Direction: 70°ENE
Pressure: 29.99"   Gusts: 26mph
Location:  18.1684°N, 67.1306°W
Report Text: TJBQ 231750Z 07019G23KT 10SM SCT025 29/23 A2999 RMK RWY 08 ATIS L
Loading
Personal Weather Stations






























Interactive Weather Map New forecast layout! Learn more

10-Day Weather Forecast

Advertisements
Track Severe Weather on mobile